sensor_id;sensor_type;location;lat;lon;timestamp;P1;durP1;ratioP1;P2;durP2;ratioP2
74626;SDS011;63132;52.268;5.192;2023-12-28T00:01:43;7.90;;;3.63;;
74626;SDS011;63132;52.268;5.192;2023-12-28T00:04:08;5.82;;;3.15;;
74626;SDS011;63132;52.268;5.192;2023-12-28T00:06:33;9.50;;;3.75;;
74626;SDS011;63132;52.268;5.192;2023-12-28T00:08:59;10.85;;;4.00;;
74626;SDS011;63132;52.268;5.192;2023-12-28T00:11:25;13.18;;;3.42;;
74626;SDS011;63132;52.268;5.192;2023-12-28T00:13:51;7.97;;;3.50;;
74626;SDS011;63132;52.268;5.192;2023-12-28T00:16:16;8.55;;;3.72;;
74626;SDS011;63132;52.268;5.192;2023-12-28T00:18:42;10.25;;;2.97;;
74626;SDS011;63132;52.268;5.192;2023-12-28T00:21:07;10.48;;;3.63;;
74626;SDS011;63132;52.268;5.192;2023-12-28T00:23:33;7.85;;;3.38;;
74626;SDS011;63132;52.268;5.192;2023-12-28T00:25:58;7.53;;;3.35;;
74626;SDS011;63132;52.268;5.192;2023-12-28T00:28:23;11.15;;;3.88;;
74626;SDS011;63132;52.268;5.192;2023-12-28T00:30:49;9.97;;;3.53;;
74626;SDS011;63132;52.268;5.192;2023-12-28T00:33:14;9.75;;;3.25;;
74626;SDS011;63132;52.268;5.192;2023-12-28T00:35:39;11.43;;;3.97;;
74626;SDS011;63132;52.268;5.192;2023-12-28T00:38:05;10.15;;;3.95;;
74626;SDS011;63132;52.268;5.192;2023-12-28T00:40:30;11.43;;;3.63;;
74626;SDS011;63132;52.268;5.192;2023-12-28T00:42:55;12.55;;;3.42;;
74626;SDS011;63132;52.268;5.192;2023-12-28T00:45:21;12.38;;;4.10;;
74626;SDS011;63132;52.268;5.192;2023-12-28T00:47:46;9.40;;;3.45;;
74626;SDS011;63132;52.268;5.192;2023-12-28T00:50:11;10.98;;;3.85;;
74626;SDS011;63132;52.268;5.192;2023-12-28T00:52:37;13.48;;;3.95;;
74626;SDS011;63132;52.268;5.192;2023-12-28T00:55:03;11.45;;;3.45;;
74626;SDS011;63132;52.268;5.192;2023-12-28T00:57:29;11.00;;;3.72;;
74626;SDS011;63132;52.268;5.192;2023-12-28T00:59:55;8.30;;;3.97;;
74626;SDS011;63132;52.268;5.192;2023-12-28T01:02:20;7.20;;;3.08;;
74626;SDS011;63132;52.268;5.192;2023-12-28T01:04:46;9.10;;;3.42;;
74626;SDS011;63132;52.268;5.192;2023-12-28T01:07:11;9.33;;;3.53;;
74626;SDS011;63132;52.268;5.192;2023-12-28T01:09:36;10.97;;;3.10;;
74626;SDS011;63132;52.268;5.192;2023-12-28T01:12:02;14.13;;;3.67;;
74626;SDS011;63132;52.268;5.192;2023-12-28T01:14:27;11.43;;;3.75;;
74626;SDS011;63132;52.268;5.192;2023-12-28T01:16:53;9.35;;;3.40;;
74626;SDS011;63132;52.268;5.192;2023-12-28T01:19:18;13.95;;;3.53;;
74626;SDS011;63132;52.268;5.192;2023-12-28T01:21:44;9.43;;;3.03;;
74626;SDS011;63132;52.268;5.192;2023-12-28T01:24:09;11.05;;;3.65;;
74626;SDS011;63132;52.268;5.192;2023-12-28T01:26:35;9.80;;;2.67;;
74626;SDS011;63132;52.268;5.192;2023-12-28T01:29:00;9.77;;;3.30;;
74626;SDS011;63132;52.268;5.192;2023-12-28T01:31:29;9.55;;;2.72;;
74626;SDS011;63132;52.268;5.192;2023-12-28T01:33:54;8.25;;;2.90;;
74626;SDS011;63132;52.268;5.192;2023-12-28T01:36:20;10.52;;;3.05;;
74626;SDS011;63132;52.268;5.192;2023-12-28T01:38:46;13.10;;;3.67;;
74626;SDS011;63132;52.268;5.192;2023-12-28T01:41:12;7.15;;;2.80;;
74626;SDS011;63132;52.268;5.192;2023-12-28T01:43:38;9.95;;;3.08;;
74626;SDS011;63132;52.268;5.192;2023-12-28T01:46:05;9.95;;;3.20;;
74626;SDS011;63132;52.268;5.192;2023-12-28T01:48:32;8.80;;;3.03;;
74626;SDS011;63132;52.268;5.192;2023-12-28T01:53:24;7.03;;;2.58;;
74626;SDS011;63132;52.268;5.192;2023-12-28T01:55:49;5.50;;;2.90;;
74626;SDS011;63132;52.268;5.192;2023-12-28T01:58:15;8.57;;;2.92;;
74626;SDS011;63132;52.268;5.192;2023-12-28T02:00:41;9.20;;;2.95;;
74626;SDS011;63132;52.268;5.192;2023-12-28T02:03:10;6.43;;;2.90;;
74626;SDS011;63132;52.268;5.192;2023-12-28T02:05:36;7.68;;;3.60;;
74626;SDS011;63132;52.268;5.192;2023-12-28T02:08:01;6.22;;;3.13;;
74626;SDS011;63132;52.268;5.192;2023-12-28T02:10:27;11.50;;;2.90;;
74626;SDS011;63132;52.268;5.192;2023-12-28T02:12:53;10.52;;;3.22;;
74626;SDS011;63132;52.268;5.192;2023-12-28T02:15:19;8.88;;;3.35;;
74626;SDS011;63132;52.268;5.192;2023-12-28T02:20:23;10.43;;;3.03;;
74626;SDS011;63132;52.268;5.192;2023-12-28T02:25:15;9.18;;;3.00;;
74626;SDS011;63132;52.268;5.192;2023-12-28T02:27:42;9.82;;;3.08;;
74626;SDS011;63132;52.268;5.192;2023-12-28T02:30:12;8.68;;;3.05;;
74626;SDS011;63132;52.268;5.192;2023-12-28T02:35:29;13.30;;;3.20;;
74626;SDS011;63132;52.268;5.192;2023-12-28T02:38:05;8.38;;;3.08;;
74626;SDS011;63132;52.268;5.192;2023-12-28T02:40:36;6.57;;;2.67;;
74626;SDS011;63132;52.268;5.192;2023-12-28T02:43:05;5.72;;;2.40;;
74626;SDS011;63132;52.268;5.192;2023-12-28T02:45:32;11.50;;;2.88;;
74626;SDS011;63132;52.268;5.192;2023-12-28T02:47:57;9.15;;;2.70;;
74626;SDS011;63132;52.268;5.192;2023-12-28T02:50:23;8.88;;;3.22;;
74626;SDS011;63132;52.268;5.192;2023-12-28T02:52:48;7.72;;;2.75;;
74626;SDS011;63132;52.268;5.192;2023-12-28T02:55:13;10.40;;;3.00;;
74626;SDS011;63132;52.268;5.192;2023-12-28T03:00:05;7.72;;;2.70;;
74626;SDS011;63132;52.268;5.192;2023-12-28T03:04:57;9.77;;;2.67;;
74626;SDS011;63132;52.268;5.192;2023-12-28T03:07:22;13.30;;;2.97;;
74626;SDS011;63132;52.268;5.192;2023-12-28T03:09:47;10.77;;;2.65;;
74626;SDS011;63132;52.268;5.192;2023-12-28T03:14:38;7.75;;;2.45;;
74626;SDS011;63132;52.268;5.192;2023-12-28T03:17:03;11.05;;;2.80;;
74626;SDS011;63132;52.268;5.192;2023-12-28T03:19:28;11.10;;;2.75;;
74626;SDS011;63132;52.268;5.192;2023-12-28T03:21:54;8.15;;;2.38;;
74626;SDS011;63132;52.268;5.192;2023-12-28T03:24:19;6.80;;;2.45;;
74626;SDS011;63132;52.268;5.192;2023-12-28T03:26:44;7.15;;;2.40;;
74626;SDS011;63132;52.268;5.192;2023-12-28T03:29:10;8.52;;;3.20;;
74626;SDS011;63132;52.268;5.192;2023-12-28T03:31:39;10.77;;;2.58;;
74626;SDS011;63132;52.268;5.192;2023-12-28T03:34:04;8.32;;;2.55;;
74626;SDS011;63132;52.268;5.192;2023-12-28T03:36:30;5.78;;;2.55;;
74626;SDS011;63132;52.268;5.192;2023-12-28T03:38:55;11.63;;;2.60;;
74626;SDS011;63132;52.268;5.192;2023-12-28T03:41:20;10.20;;;2.70;;
74626;SDS011;63132;52.268;5.192;2023-12-28T03:43:46;10.07;;;2.80;;
74626;SDS011;63132;52.268;5.192;2023-12-28T03:46:12;10.52;;;2.83;;
74626;SDS011;63132;52.268;5.192;2023-12-28T03:48:38;20.30;;;2.95;;
74626;SDS011;63132;52.268;5.192;2023-12-28T03:51:03;14.82;;;2.72;;
74626;SDS011;63132;52.268;5.192;2023-12-28T03:53:29;9.82;;;3.25;;
74626;SDS011;63132;52.268;5.192;2023-12-28T03:55:56;8.70;;;2.67;;
74626;SDS011;63132;52.268;5.192;2023-12-28T03:58:25;13.98;;;3.00;;
74626;SDS011;63132;52.268;5.192;2023-12-28T04:00:50;9.77;;;2.75;;
74626;SDS011;63132;52.268;5.192;2023-12-28T04:03:15;9.93;;;2.75;;
74626;SDS011;63132;52.268;5.192;2023-12-28T04:05:42;12.20;;;2.47;;
74626;SDS011;63132;52.268;5.192;2023-12-28T04:08:08;8.38;;;2.45;;
74626;SDS011;63132;52.268;5.192;2023-12-28T04:10:33;11.07;;;2.95;;
74626;SDS011;63132;52.268;5.192;2023-12-28T04:12:59;9.32;;;3.97;;
74626;SDS011;63132;52.268;5.192;2023-12-28T04:15:25;13.00;;;2.70;;
74626;SDS011;63132;52.268;5.192;2023-12-28T04:17:51;9.10;;;2.58;;
74626;SDS011;63132;52.268;5.192;2023-12-28T04:20:16;11.82;;;3.05;;
74626;SDS011;63132;52.268;5.192;2023-12-28T04:22:44;8.55;;;2.53;;
74626;SDS011;63132;52.268;5.192;2023-12-28T04:25:10;12.57;;;3.78;;
74626;SDS011;63132;52.268;5.192;2023-12-28T04:30:02;9.35;;;2.50;;
74626;SDS011;63132;52.268;5.192;2023-12-28T04:32:30;16.17;;;2.83;;
74626;SDS011;63132;52.268;5.192;2023-12-28T04:34:55;8.23;;;2.33;;
74626;SDS011;63132;52.268;5.192;2023-12-28T04:37:21;16.38;;;2.80;;
74626;SDS011;63132;52.268;5.192;2023-12-28T04:39:46;16.50;;;2.47;;
74626;SDS011;63132;52.268;5.192;2023-12-28T04:42:12;10.35;;;3.08;;
74626;SDS011;63132;52.268;5.192;2023-12-28T04:44:37;15.25;;;3.45;;
74626;SDS011;63132;52.268;5.192;2023-12-28T04:47:03;16.10;;;3.28;;
74626;SDS011;63132;52.268;5.192;2023-12-28T04:49:29;12.70;;;2.80;;
74626;SDS011;63132;52.268;5.192;2023-12-28T04:54:20;9.32;;;2.38;;
74626;SDS011;63132;52.268;5.192;2023-12-28T04:56:46;8.88;;;2.38;;
74626;SDS011;63132;52.268;5.192;2023-12-28T04:59:11;10.20;;;2.40;;
74626;SDS011;63132;52.268;5.192;2023-12-28T05:04:08;16.90;;;2.45;;
74626;SDS011;63132;52.268;5.192;2023-12-28T05:06:33;15.27;;;2.88;;
74626;SDS011;63132;52.268;5.192;2023-12-28T05:08:59;19.10;;;3.20;;
74626;SDS011;63132;52.268;5.192;2023-12-28T05:11:24;10.27;;;2.22;;
74626;SDS011;63132;52.268;5.192;2023-12-28T05:13:49;8.90;;;2.33;;
74626;SDS011;63132;52.268;5.192;2023-12-28T05:16:15;11.98;;;2.60;;
74626;SDS011;63132;52.268;5.192;2023-12-28T05:18:40;21.02;;;2.90;;
74626;SDS011;63132;52.268;5.192;2023-12-28T05:21:05;9.73;;;2.58;;
74626;SDS011;63132;52.268;5.192;2023-12-28T05:23:31;10.80;;;2.40;;
74626;SDS011;63132;52.268;5.192;2023-12-28T05:25:56;14.93;;;3.30;;
74626;SDS011;63132;52.268;5.192;2023-12-28T05:28:21;12.77;;;2.40;;
74626;SDS011;63132;52.268;5.192;2023-12-28T05:30:47;13.85;;;2.35;;
74626;SDS011;63132;52.268;5.192;2023-12-28T05:35:37;15.68;;;2.65;;
74626;SDS011;63132;52.268;5.192;2023-12-28T05:38:03;17.05;;;3.00;;
74626;SDS011;63132;52.268;5.192;2023-12-28T05:40:29;16.48;;;3.00;;
74626;SDS011;63132;52.268;5.192;2023-12-28T05:42:55;14.90;;;2.78;;
74626;SDS011;63132;52.268;5.192;2023-12-28T05:47:45;16.02;;;2.72;;
74626;SDS011;63132;52.268;5.192;2023-12-28T05:50:11;13.20;;;2.72;;
74626;SDS011;63132;52.268;5.192;2023-12-28T05:55:01;11.67;;;2.70;;
74626;SDS011;63132;52.268;5.192;2023-12-28T06:02:20;21.60;;;2.95;;
74626;SDS011;63132;52.268;5.192;2023-12-28T06:04:45;17.27;;;2.58;;
74626;SDS011;63132;52.268;5.192;2023-12-28T06:07:11;15.98;;;3.15;;
74626;SDS011;63132;52.268;5.192;2023-12-28T06:09:36;13.68;;;3.05;;
74626;SDS011;63132;52.268;5.192;2023-12-28T06:12:03;16.25;;;3.00;;
74626;SDS011;63132;52.268;5.192;2023-12-28T06:16:55;16.67;;;2.70;;
74626;SDS011;63132;52.268;5.192;2023-12-28T06:19:20;23.92;;;5.22;;
74626;SDS011;63132;52.268;5.192;2023-12-28T06:21:47;12.80;;;3.33;;
74626;SDS011;63132;52.268;5.192;2023-12-28T06:24:12;17.02;;;2.58;;
74626;SDS011;63132;52.268;5.192;2023-12-28T06:26:41;16.05;;;2.72;;
74626;SDS011;63132;52.268;5.192;2023-12-28T06:29:07;17.73;;;2.42;;
74626;SDS011;63132;52.268;5.192;2023-12-28T06:31:33;15.35;;;3.28;;
74626;SDS011;63132;52.268;5.192;2023-12-28T06:34:01;22.73;;;3.30;;
74626;SDS011;63132;52.268;5.192;2023-12-28T06:36:27;24.45;;;3.03;;
74626;SDS011;63132;52.268;5.192;2023-12-28T06:38:53;17.25;;;2.50;;
74626;SDS011;63132;52.268;5.192;2023-12-28T06:43:43;23.27;;;3.60;;
74626;SDS011;63132;52.268;5.192;2023-12-28T06:46:09;20.83;;;2.80;;
74626;SDS011;63132;52.268;5.192;2023-12-28T06:48:34;23.47;;;3.27;;
74626;SDS011;63132;52.268;5.192;2023-12-28T06:50:59;20.85;;;3.38;;
74626;SDS011;63132;52.268;5.192;2023-12-28T06:55:50;23.67;;;4.72;;
74626;SDS011;63132;52.268;5.192;2023-12-28T06:58:15;22.15;;;3.67;;
74626;SDS011;63132;52.268;5.192;2023-12-28T07:00:41;26.30;;;4.60;;
74626;SDS011;63132;52.268;5.192;2023-12-28T07:03:08;23.73;;;3.25;;
74626;SDS011;63132;52.268;5.192;2023-12-28T07:05:34;18.25;;;2.90;;
74626;SDS011;63132;52.268;5.192;2023-12-28T07:07:59;22.20;;;3.72;;
74626;SDS011;63132;52.268;5.192;2023-12-28T07:10:24;24.55;;;4.07;;
74626;SDS011;63132;52.268;5.192;2023-12-28T07:12:50;15.95;;;3.72;;
74626;SDS011;63132;52.268;5.192;2023-12-28T07:15:15;20.33;;;3.05;;
74626;SDS011;63132;52.268;5.192;2023-12-28T07:17:41;18.27;;;3.15;;
74626;SDS011;63132;52.268;5.192;2023-12-28T07:24:59;16.92;;;3.92;;
74626;SDS011;63132;52.268;5.192;2023-12-28T07:27:24;21.88;;;3.47;;
74626;SDS011;63132;52.268;5.192;2023-12-28T07:29:50;21.65;;;3.75;;
74626;SDS011;63132;52.268;5.192;2023-12-28T07:32:15;32.83;;;3.67;;
74626;SDS011;63132;52.268;5.192;2023-12-28T07:34:40;22.07;;;3.57;;
74626;SDS011;63132;52.268;5.192;2023-12-28T07:37:06;19.58;;;3.00;;
74626;SDS011;63132;52.268;5.192;2023-12-28T07:39:31;27.75;;;3.17;;
74626;SDS011;63132;52.268;5.192;2023-12-28T07:41:56;19.92;;;3.30;;
74626;SDS011;63132;52.268;5.192;2023-12-28T07:44:22;18.00;;;3.15;;
74626;SDS011;63132;52.268;5.192;2023-12-28T07:46:47;22.10;;;3.67;;
74626;SDS011;63132;52.268;5.192;2023-12-28T07:49:12;23.80;;;3.17;;
74626;SDS011;63132;52.268;5.192;2023-12-28T07:51:38;12.90;;;2.72;;
74626;SDS011;63132;52.268;5.192;2023-12-28T07:54:03;14.20;;;3.83;;
74626;SDS011;63132;52.268;5.192;2023-12-28T07:58:54;16.33;;;2.83;;
74626;SDS011;63132;52.268;5.192;2023-12-28T08:01:19;22.13;;;4.22;;
74626;SDS011;63132;52.268;5.192;2023-12-28T08:03:45;14.40;;;2.47;;
74626;SDS011;63132;52.268;5.192;2023-12-28T08:06:11;24.20;;;3.25;;
74626;SDS011;63132;52.268;5.192;2023-12-28T08:08:38;17.00;;;3.53;;
74626;SDS011;63132;52.268;5.192;2023-12-28T08:11:03;18.30;;;3.45;;
74626;SDS011;63132;52.268;5.192;2023-12-28T08:13:28;18.25;;;3.22;;
74626;SDS011;63132;52.268;5.192;2023-12-28T08:15:54;18.58;;;3.05;;
74626;SDS011;63132;52.268;5.192;2023-12-28T08:18:19;21.92;;;3.80;;
74626;SDS011;63132;52.268;5.192;2023-12-28T08:20:44;19.13;;;2.78;;
74626;SDS011;63132;52.268;5.192;2023-12-28T08:25:36;21.70;;;2.83;;
74626;SDS011;63132;52.268;5.192;2023-12-28T08:28:01;17.00;;;2.75;;
74626;SDS011;63132;52.268;5.192;2023-12-28T08:30:27;24.33;;;3.72;;
74626;SDS011;63132;52.268;5.192;2023-12-28T08:35:18;23.30;;;4.18;;
74626;SDS011;63132;52.268;5.192;2023-12-28T08:40:08;21.25;;;2.67;;
74626;SDS011;63132;52.268;5.192;2023-12-28T08:42:34;19.95;;;3.22;;
74626;SDS011;63132;52.268;5.192;2023-12-28T08:44:59;26.30;;;3.50;;
74626;SDS011;63132;52.268;5.192;2023-12-28T08:47:25;14.90;;;3.40;;
74626;SDS011;63132;52.268;5.192;2023-12-28T08:49:50;26.00;;;4.00;;
74626;SDS011;63132;52.268;5.192;2023-12-28T08:52:15;19.75;;;3.40;;
74626;SDS011;63132;52.268;5.192;2023-12-28T08:54:41;29.67;;;4.85;;
74626;SDS011;63132;52.268;5.192;2023-12-28T08:57:06;16.08;;;2.65;;
74626;SDS011;63132;52.268;5.192;2023-12-28T08:59:35;19.27;;;4.28;;
74626;SDS011;63132;52.268;5.192;2023-12-28T09:02:01;22.45;;;3.45;;
74626;SDS011;63132;52.268;5.192;2023-12-28T09:04:26;18.00;;;3.38;;
74626;SDS011;63132;52.268;5.192;2023-12-28T09:06:52;27.77;;;3.38;;
74626;SDS011;63132;52.268;5.192;2023-12-28T09:09:17;26.42;;;3.47;;
74626;SDS011;63132;52.268;5.192;2023-12-28T09:11:43;21.67;;;3.20;;
74626;SDS011;63132;52.268;5.192;2023-12-28T09:14:08;26.10;;;4.00;;
74626;SDS011;63132;52.268;5.192;2023-12-28T09:16:34;21.27;;;4.82;;
74626;SDS011;63132;52.268;5.192;2023-12-28T09:19:00;25.02;;;4.35;;
74626;SDS011;63132;52.268;5.192;2023-12-28T09:21:26;22.67;;;2.88;;
74626;SDS011;63132;52.268;5.192;2023-12-28T09:23:52;22.25;;;3.25;;
74626;SDS011;63132;52.268;5.192;2023-12-28T09:26:17;18.85;;;3.75;;
74626;SDS011;63132;52.268;5.192;2023-12-28T09:28:43;15.38;;;3.00;;
74626;SDS011;63132;52.268;5.192;2023-12-28T09:33:34;15.52;;;2.80;;
74626;SDS011;63132;52.268;5.192;2023-12-28T09:35:59;19.33;;;3.50;;
74626;SDS011;63132;52.268;5.192;2023-12-28T09:40:52;20.85;;;3.70;;
74626;SDS011;63132;52.268;5.192;2023-12-28T09:43:25;17.92;;;3.40;;
74626;SDS011;63132;52.268;5.192;2023-12-28T09:45:55;26.00;;;3.63;;
74626;SDS011;63132;52.268;5.192;2023-12-28T09:48:21;23.17;;;3.88;;
74626;SDS011;63132;52.268;5.192;2023-12-28T09:50:53;31.95;;;4.30;;
74626;SDS011;63132;52.268;5.192;2023-12-28T09:53:23;23.63;;;4.18;;
74626;SDS011;63132;52.268;5.192;2023-12-28T09:55:49;22.92;;;3.85;;
74626;SDS011;63132;52.268;5.192;2023-12-28T09:58:17;24.48;;;3.45;;
74626;SDS011;63132;52.268;5.192;2023-12-28T10:00:44;31.98;;;3.60;;
74626;SDS011;63132;52.268;5.192;2023-12-28T10:03:14;13.95;;;3.10;;
74626;SDS011;63132;52.268;5.192;2023-12-28T10:05:41;15.75;;;3.08;;
74626;SDS011;63132;52.268;5.192;2023-12-28T10:08:07;22.20;;;3.90;;
74626;SDS011;63132;52.268;5.192;2023-12-28T10:10:32;26.95;;;3.65;;
74626;SDS011;63132;52.268;5.192;2023-12-28T10:15:23;25.20;;;3.78;;
74626;SDS011;63132;52.268;5.192;2023-12-28T10:17:51;22.95;;;3.28;;
74626;SDS011;63132;52.268;5.192;2023-12-28T10:20:19;25.00;;;3.28;;
74626;SDS011;63132;52.268;5.192;2023-12-28T10:22:44;20.60;;;2.88;;
74626;SDS011;63132;52.268;5.192;2023-12-28T10:25:11;16.73;;;3.47;;
74626;SDS011;63132;52.268;5.192;2023-12-28T10:27:38;20.77;;;3.47;;
74626;SDS011;63132;52.268;5.192;2023-12-28T10:30:04;24.67;;;4.25;;
74626;SDS011;63132;52.268;5.192;2023-12-28T10:32:30;25.55;;;3.28;;
74626;SDS011;63132;52.268;5.192;2023-12-28T10:37:21;16.90;;;3.00;;
74626;SDS011;63132;52.268;5.192;2023-12-28T10:39:51;21.15;;;3.20;;
74626;SDS011;63132;52.268;5.192;2023-12-28T10:42:32;25.95;;;4.03;;
74626;SDS011;63132;52.268;5.192;2023-12-28T10:45:02;22.23;;;3.78;;
74626;SDS011;63132;52.268;5.192;2023-12-28T10:47:33;20.38;;;3.45;;
74626;SDS011;63132;52.268;5.192;2023-12-28T10:50:03;22.95;;;4.28;;
74626;SDS011;63132;52.268;5.192;2023-12-28T10:52:31;27.70;;;4.10;;
74626;SDS011;63132;52.268;5.192;2023-12-28T10:57:53;24.80;;;3.78;;
74626;SDS011;63132;52.268;5.192;2023-12-28T11:00:36;22.45;;;3.40;;
74626;SDS011;63132;52.268;5.192;2023-12-28T11:03:08;24.67;;;3.65;;
74626;SDS011;63132;52.268;5.192;2023-12-28T11:05:36;20.02;;;3.13;;
74626;SDS011;63132;52.268;5.192;2023-12-28T11:08:03;28.40;;;3.55;;
74626;SDS011;63132;52.268;5.192;2023-12-28T11:10:32;24.60;;;5.53;;
74626;SDS011;63132;52.268;5.192;2023-12-28T11:12:59;31.25;;;4.18;;
74626;SDS011;63132;52.268;5.192;2023-12-28T11:17:51;29.48;;;4.30;;
74626;SDS011;63132;52.268;5.192;2023-12-28T11:22:43;18.63;;;3.03;;
74626;SDS011;63132;52.268;5.192;2023-12-28T11:25:16;20.88;;;3.88;;
74626;SDS011;63132;52.268;5.192;2023-12-28T11:27:42;20.63;;;2.97;;
74626;SDS011;63132;52.268;5.192;2023-12-28T11:30:09;21.25;;;3.42;;
74626;SDS011;63132;52.268;5.192;2023-12-28T11:32:35;23.08;;;3.65;;
74626;SDS011;63132;52.268;5.192;2023-12-28T11:35:01;24.52;;;3.40;;
74626;SDS011;63132;52.268;5.192;2023-12-28T11:37:27;23.25;;;3.78;;
74626;SDS011;63132;52.268;5.192;2023-12-28T11:39:54;25.45;;;3.80;;
74626;SDS011;63132;52.268;5.192;2023-12-28T11:42:21;16.60;;;3.55;;
74626;SDS011;63132;52.268;5.192;2023-12-28T11:44:48;27.58;;;5.13;;
74626;SDS011;63132;52.268;5.192;2023-12-28T11:49:48;29.85;;;4.53;;
74626;SDS011;63132;52.268;5.192;2023-12-28T11:52:29;24.55;;;4.00;;
74626;SDS011;63132;52.268;5.192;2023-12-28T11:54:56;26.48;;;3.58;;
74626;SDS011;63132;52.268;5.192;2023-12-28T11:57:22;24.05;;;3.88;;
74626;SDS011;63132;52.268;5.192;2023-12-28T11:59:57;24.15;;;3.47;;
74626;SDS011;63132;52.268;5.192;2023-12-28T12:02:24;29.40;;;5.28;;
74626;SDS011;63132;52.268;5.192;2023-12-28T12:07:15;19.10;;;2.97;;
74626;SDS011;63132;52.268;5.192;2023-12-28T12:09:40;26.20;;;2.95;;
74626;SDS011;63132;52.268;5.192;2023-12-28T12:12:06;24.13;;;3.58;;
74626;SDS011;63132;52.268;5.192;2023-12-28T12:14:32;27.13;;;4.43;;
74626;SDS011;63132;52.268;5.192;2023-12-28T12:16:59;25.13;;;3.22;;
74626;SDS011;63132;52.268;5.192;2023-12-28T12:21:54;25.67;;;3.97;;
74626;SDS011;63132;52.268;5.192;2023-12-28T12:24:21;23.60;;;3.25;;
74626;SDS011;63132;52.268;5.192;2023-12-28T12:26:46;17.55;;;3.50;;
74626;SDS011;63132;52.268;5.192;2023-12-28T12:31:39;21.65;;;3.33;;
74626;SDS011;63132;52.268;5.192;2023-12-28T12:34:07;21.80;;;3.50;;
74626;SDS011;63132;52.268;5.192;2023-12-28T12:36:35;22.98;;;4.10;;
74626;SDS011;63132;52.268;5.192;2023-12-28T12:39:02;23.23;;;3.97;;
74626;SDS011;63132;52.268;5.192;2023-12-28T12:41:31;27.40;;;4.00;;
74626;SDS011;63132;52.268;5.192;2023-12-28T12:43:58;24.30;;;4.43;;
74626;SDS011;63132;52.268;5.192;2023-12-28T12:46:24;25.67;;;3.55;;
74626;SDS011;63132;52.268;5.192;2023-12-28T12:48:59;28.35;;;3.55;;
74626;SDS011;63132;52.268;5.192;2023-12-28T12:51:27;26.42;;;4.40;;
74626;SDS011;63132;52.268;5.192;2023-12-28T12:53:57;24.42;;;3.83;;
74626;SDS011;63132;52.268;5.192;2023-12-28T12:56:22;30.48;;;4.68;;
74626;SDS011;63132;52.268;5.192;2023-12-28T12:58:48;25.35;;;5.07;;
74626;SDS011;63132;52.268;5.192;2023-12-28T13:01:14;36.03;;;4.55;;
74626;SDS011;63132;52.268;5.192;2023-12-28T13:03:39;19.35;;;3.78;;
74626;SDS011;63132;52.268;5.192;2023-12-28T13:06:05;25.85;;;3.42;;
74626;SDS011;63132;52.268;5.192;2023-12-28T13:10:55;21.23;;;3.10;;
74626;SDS011;63132;52.268;5.192;2023-12-28T13:13:21;28.33;;;5.15;;
74626;SDS011;63132;52.268;5.192;2023-12-28T13:15:46;31.85;;;4.32;;
74626;SDS011;63132;52.268;5.192;2023-12-28T13:20:37;26.05;;;3.78;;
74626;SDS011;63132;52.268;5.192;2023-12-28T13:23:03;22.95;;;3.17;;
74626;SDS011;63132;52.268;5.192;2023-12-28T13:25:28;19.52;;;3.67;;
74626;SDS011;63132;52.268;5.192;2023-12-28T13:30:19;28.08;;;3.78;;
74626;SDS011;63132;52.268;5.192;2023-12-28T13:32:46;24.17;;;3.10;;
74626;SDS011;63132;52.268;5.192;2023-12-28T13:35:12;20.45;;;3.38;;
74626;SDS011;63132;52.268;5.192;2023-12-28T13:37:37;34.42;;;4.78;;
74626;SDS011;63132;52.268;5.192;2023-12-28T13:40:06;20.63;;;3.83;;
74626;SDS011;63132;52.268;5.192;2023-12-28T13:42:32;23.35;;;2.85;;
74626;SDS011;63132;52.268;5.192;2023-12-28T13:44:57;23.65;;;3.42;;
74626;SDS011;63132;52.268;5.192;2023-12-28T13:47:23;18.83;;;3.53;;
74626;SDS011;63132;52.268;5.192;2023-12-28T13:52:13;28.70;;;4.15;;
74626;SDS011;63132;52.268;5.192;2023-12-28T13:57:05;20.98;;;3.30;;
74626;SDS011;63132;52.268;5.192;2023-12-28T13:59:30;30.92;;;3.50;;
74626;SDS011;63132;52.268;5.192;2023-12-28T14:01:56;24.13;;;3.33;;
74626;SDS011;63132;52.268;5.192;2023-12-28T14:04:23;24.05;;;3.83;;
74626;SDS011;63132;52.268;5.192;2023-12-28T14:06:48;28.48;;;3.63;;
74626;SDS011;63132;52.268;5.192;2023-12-28T14:09:14;30.80;;;3.33;;
74626;SDS011;63132;52.268;5.192;2023-12-28T14:11:44;31.00;;;5.05;;
74626;SDS011;63132;52.268;5.192;2023-12-28T14:14:10;23.63;;;3.40;;
74626;SDS011;63132;52.268;5.192;2023-12-28T14:16:36;28.40;;;3.80;;
74626;SDS011;63132;52.268;5.192;2023-12-28T14:19:01;28.00;;;4.72;;
74626;SDS011;63132;52.268;5.192;2023-12-28T14:21:27;20.73;;;3.92;;
74626;SDS011;63132;52.268;5.192;2023-12-28T14:23:52;30.13;;;4.35;;
74626;SDS011;63132;52.268;5.192;2023-12-28T14:26:18;27.55;;;3.53;;
74626;SDS011;63132;52.268;5.192;2023-12-28T14:28:45;24.88;;;4.53;;
74626;SDS011;63132;52.268;5.192;2023-12-28T14:31:11;24.05;;;3.15;;
74626;SDS011;63132;52.268;5.192;2023-12-28T14:33:37;25.80;;;3.78;;
74626;SDS011;63132;52.268;5.192;2023-12-28T14:36:27;25.27;;;4.43;;
74626;SDS011;63132;52.268;5.192;2023-12-28T14:38:59;21.20;;;3.95;;
74626;SDS011;63132;52.268;5.192;2023-12-28T14:41:25;24.17;;;3.25;;
74626;SDS011;63132;52.268;5.192;2023-12-28T14:43:51;21.88;;;4.07;;
74626;SDS011;63132;52.268;5.192;2023-12-28T14:46:16;26.15;;;3.90;;
74626;SDS011;63132;52.268;5.192;2023-12-28T14:48:41;26.33;;;4.05;;
74626;SDS011;63132;52.268;5.192;2023-12-28T14:51:07;26.75;;;4.18;;
74626;SDS011;63132;52.268;5.192;2023-12-28T14:53:33;23.00;;;3.70;;
74626;SDS011;63132;52.268;5.192;2023-12-28T14:55:58;23.58;;;3.67;;
74626;SDS011;63132;52.268;5.192;2023-12-28T14:58:25;28.42;;;4.00;;
74626;SDS011;63132;52.268;5.192;2023-12-28T15:00:51;30.75;;;4.10;;
74626;SDS011;63132;52.268;5.192;2023-12-28T15:05:42;22.02;;;4.68;;
74626;SDS011;63132;52.268;5.192;2023-12-28T15:08:08;28.90;;;3.75;;
74626;SDS011;63132;52.268;5.192;2023-12-28T15:10:33;27.67;;;3.83;;
74626;SDS011;63132;52.268;5.192;2023-12-28T15:12:59;26.10;;;3.65;;
74626;SDS011;63132;52.268;5.192;2023-12-28T15:15:25;23.40;;;3.53;;
74626;SDS011;63132;52.268;5.192;2023-12-28T15:17:50;23.27;;;4.13;;
74626;SDS011;63132;52.268;5.192;2023-12-28T15:22:41;32.50;;;3.85;;
74626;SDS011;63132;52.268;5.192;2023-12-28T15:25:07;20.73;;;3.35;;
74626;SDS011;63132;52.268;5.192;2023-12-28T15:27:32;27.52;;;4.35;;
74626;SDS011;63132;52.268;5.192;2023-12-28T15:29:59;23.27;;;3.53;;
74626;SDS011;63132;52.268;5.192;2023-12-28T15:32:24;18.17;;;3.78;;
74626;SDS011;63132;52.268;5.192;2023-12-28T15:34:50;24.98;;;3.88;;
74626;SDS011;63132;52.268;5.192;2023-12-28T15:37:15;31.07;;;3.93;;
74626;SDS011;63132;52.268;5.192;2023-12-28T15:39:40;23.87;;;4.33;;
74626;SDS011;63132;52.268;5.192;2023-12-28T15:42:07;23.45;;;3.72;;
74626;SDS011;63132;52.268;5.192;2023-12-28T15:44:32;17.90;;;3.13;;
74626;SDS011;63132;52.268;5.192;2023-12-28T15:46:58;20.63;;;3.97;;
74626;SDS011;63132;52.268;5.192;2023-12-28T15:49:23;23.08;;;3.85;;
74626;SDS011;63132;52.268;5.192;2023-12-28T15:54:14;29.20;;;3.88;;
74626;SDS011;63132;52.268;5.192;2023-12-28T15:59:04;22.15;;;3.22;;
74626;SDS011;63132;52.268;5.192;2023-12-28T16:01:30;25.08;;;4.40;;
74626;SDS011;63132;52.268;5.192;2023-12-28T16:03:55;24.05;;;3.88;;
74626;SDS011;63132;52.268;5.192;2023-12-28T16:06:20;19.65;;;3.15;;
74626;SDS011;63132;52.268;5.192;2023-12-28T16:11:11;16.30;;;2.95;;
74626;SDS011;63132;52.268;5.192;2023-12-28T16:16:03;20.92;;;3.17;;
74626;SDS011;63132;52.268;5.192;2023-12-28T16:18:29;18.40;;;3.20;;
74626;SDS011;63132;52.268;5.192;2023-12-28T16:20:55;18.08;;;3.10;;
74626;SDS011;63132;52.268;5.192;2023-12-28T16:23:21;22.85;;;3.53;;